createdAt,value
2018-09-09T00:03:57.755Z,1.93
2018-09-09T00:10:02.594Z,2.10
2018-09-09T00:16:07.837Z,2.37
2018-09-09T00:22:13.987Z,2.30
2018-09-09T00:28:19.005Z,1.93
2018-09-09T00:34:24.444Z,2.07
2018-09-09T00:40:29.118Z,2.23
2018-09-09T00:46:34.013Z,1.90
2018-09-09T00:52:44.025Z,2.10
2018-09-09T00:58:48.802Z,1.67
2018-09-09T01:04:53.568Z,2.07
2018-09-09T01:10:58.246Z,2.40
2018-09-09T01:17:03.279Z,2.20
2018-09-09T01:23:08.249Z,2.23
2018-09-09T01:29:13.287Z,2.30
2018-09-09T01:35:18.071Z,1.93
2018-09-09T01:41:23.205Z,1.97
2018-09-09T01:47:27.922Z,2.07
2018-09-09T01:53:32.632Z,2.13
2018-09-09T01:59:37.505Z,1.97
2018-09-09T02:05:42.334Z,2.57
2018-09-09T02:11:47.104Z,2.37
2018-09-09T02:17:51.921Z,2.10
2018-09-09T02:23:56.834Z,2.10
2018-09-09T02:30:01.756Z,2.50
2018-09-09T02:36:06.574Z,1.83
2018-09-09T02:42:11.981Z,2.07
2018-09-09T02:48:16.955Z,2.20
2018-09-09T02:54:21.721Z,1.90
2018-09-09T03:00:26.490Z,2.50
2018-09-09T03:06:31.315Z,2.30
2018-09-09T03:12:36.027Z,2.53
2018-09-09T03:18:42.586Z,2.87
2018-09-09T03:24:47.277Z,2.83
2018-09-09T03:30:52.205Z,2.33
2018-09-09T03:36:56.947Z,2.60
2018-09-09T03:43:02.432Z,2.73
2018-09-09T03:49:07.344Z,2.90
2018-09-09T03:55:12.107Z,2.40
2018-09-09T04:01:17.127Z,2.53
2018-09-09T04:07:21.802Z,2.30
2018-09-09T04:13:26.513Z,2.60
2018-09-09T04:19:31.303Z,2.97
2018-09-09T04:25:36.124Z,2.37
2018-09-09T04:31:41.900Z,3.40
2018-09-09T04:37:46.615Z,2.77
2018-09-09T04:43:51.573Z,2.50
2018-09-09T04:49:56.394Z,2.70
2018-09-09T04:56:01.187Z,2.70
2018-09-09T05:02:06.076Z,2.80
2018-09-09T05:08:10.977Z,2.40
2018-09-09T05:14:16.169Z,2.43
2018-09-09T05:20:20.890Z,2.10
2018-09-09T05:26:25.639Z,2.50
2018-09-09T05:32:30.337Z,2.60
2018-09-09T05:38:35.058Z,2.77
2018-09-09T05:44:40.276Z,1.70
2018-09-09T05:50:45.924Z,2.10
2018-09-09T05:56:50.744Z,2.63
2018-09-09T06:02:55.481Z,2.40
2018-09-09T06:09:00.159Z,2.77
2018-09-09T06:15:05.128Z,2.60
2018-09-09T06:21:10.161Z,2.40
2018-09-09T06:27:15.078Z,2.33
2018-09-09T06:33:20.173Z,2.37
2018-09-09T06:39:25.213Z,2.70
2018-09-09T06:45:29.929Z,2.10
2018-09-09T06:51:34.903Z,3.10
2018-09-09T06:57:41.152Z,2.00
2018-09-09T07:03:46.271Z,2.07
2018-09-09T07:09:51.355Z,1.80
2018-09-09T07:15:56.178Z,2.37
2018-09-09T07:22:00.916Z,1.90
2018-09-09T07:28:05.650Z,2.20
2018-09-09T07:34:13.111Z,2.50
2018-09-09T07:40:17.954Z,2.50
2018-09-09T07:46:22.736Z,2.00
2018-09-09T07:52:27.784Z,1.60
2018-09-09T07:58:32.623Z,1.40
2018-09-09T08:04:37.425Z,2.20
2018-09-09T08:10:42.287Z,2.30
2018-09-09T08:16:47.187Z,2.37
2018-09-09T08:22:51.943Z,2.30
2018-09-09T08:28:56.774Z,2.13
2018-09-09T08:35:01.569Z,1.97
2018-09-09T08:41:07.552Z,1.93
2018-09-09T08:47:12.792Z,2.70
2018-09-09T08:53:17.579Z,2.17
2018-09-09T08:59:22.367Z,2.33
2018-09-09T09:05:27.198Z,3.80
2018-09-09T09:11:31.938Z,2.00
2018-09-09T09:17:36.700Z,2.40
2018-09-09T09:23:42.179Z,2.00
2018-09-09T09:29:52.369Z,2.10
2018-09-09T09:35:57.091Z,1.90
2018-09-09T09:42:01.837Z,1.80
2018-09-09T09:48:06.742Z,1.80
2018-09-09T09:54:12.885Z,2.23
2018-09-09T10:00:22.743Z,1.93
2018-09-09T10:06:27.459Z,2.00
2018-09-09T10:12:32.195Z,1.70
2018-09-09T10:18:36.930Z,2.00
2018-09-09T10:24:42.234Z,2.07
2018-09-09T10:30:47.065Z,2.17
2018-09-09T10:36:51.884Z,1.60
2018-09-09T10:42:56.696Z,2.10
2018-09-09T10:49:01.498Z,1.77
2018-09-09T10:55:06.371Z,1.83
2018-09-09T11:01:11.363Z,1.77
2018-09-09T11:07:16.664Z,1.83
2018-09-09T11:13:21.571Z,1.53
2018-09-09T11:19:26.541Z,2.00
2018-09-09T11:25:31.287Z,1.87
2018-09-09T11:31:36.487Z,1.57
2018-09-09T11:37:43.880Z,1.40
2018-09-09T11:43:49.116Z,1.60
2018-09-09T11:49:53.721Z,1.50
2018-09-09T11:55:58.768Z,1.80
2018-09-09T12:02:03.764Z,1.60
2018-09-09T12:08:09.114Z,1.40
2018-09-09T12:14:14.100Z,1.40
2018-09-09T12:20:19.038Z,1.50
2018-09-09T12:26:24.011Z,1.43
2018-09-09T12:32:29.075Z,1.50
2018-09-09T12:38:34.029Z,1.90
2018-09-09T12:44:44.023Z,1.57
2018-09-09T12:50:48.972Z,1.80
2018-09-09T12:56:53.784Z,1.47
2018-09-09T13:02:58.525Z,1.40
2018-09-09T13:09:03.583Z,1.60
2018-09-09T13:15:08.364Z,1.63
2018-09-09T13:21:13.481Z,1.57
2018-09-09T13:27:18.225Z,1.67
2018-09-09T13:33:22.988Z,1.43
2018-09-09T13:39:27.739Z,1.50
2018-09-09T13:45:32.471Z,1.47
2018-09-09T13:51:37.697Z,2.00
2018-09-09T13:57:42.717Z,1.40
2018-09-09T14:03:47.542Z,1.60
2018-09-09T14:09:52.381Z,1.40
2018-09-09T14:15:57.118Z,1.57
2018-09-09T14:22:01.947Z,1.93
2018-09-09T14:28:06.832Z,1.30
2018-09-09T14:34:12.084Z,1.83
2018-09-09T14:40:17.406Z,1.50
2018-09-09T14:46:22.322Z,1.70
2018-09-09T14:52:27.068Z,1.37
2018-09-09T14:58:31.960Z,1.57
2018-09-09T15:04:36.850Z,1.60
2018-09-09T15:10:42.769Z,1.10
2018-09-09T15:16:47.837Z,1.43
2018-09-09T15:22:52.660Z,1.90
2018-09-09T15:28:57.800Z,1.80
2018-09-09T15:35:02.703Z,1.80
2018-09-09T15:41:07.400Z,1.60
2018-09-09T15:47:12.343Z,1.77
2018-09-09T15:53:17.277Z,1.87
2018-09-09T15:59:22.138Z,1.63
2018-09-09T16:05:27.097Z,1.30
2018-09-09T16:11:32.286Z,1.50
2018-09-09T16:17:37.057Z,2.10
2018-09-09T16:23:43.345Z,1.40
2018-09-09T16:29:48.142Z,1.30
2018-09-09T16:35:53.041Z,1.60
2018-09-09T16:41:58.151Z,1.63
2018-09-09T16:48:03.070Z,1.47
2018-09-09T16:54:08.076Z,1.70
2018-09-09T17:00:13.286Z,1.63
2018-09-09T17:06:18.460Z,1.60
2018-09-09T17:12:23.359Z,1.43
2018-09-09T17:18:28.570Z,1.43
2018-09-09T17:24:33.595Z,1.60
2018-09-09T17:30:38.631Z,1.80
2018-09-09T17:36:43.911Z,1.50
2018-09-09T17:42:49.080Z,1.60
2018-09-09T17:48:53.873Z,1.57
2018-09-09T17:54:58.896Z,1.60
2018-09-09T18:01:03.794Z,1.40
2018-09-09T18:07:09.480Z,1.73
2018-09-09T18:13:15.103Z,1.90
2018-09-09T18:19:19.835Z,1.70
2018-09-09T18:25:24.652Z,1.40
2018-09-09T18:31:29.761Z,1.80
2018-09-09T18:37:34.491Z,1.90
2018-09-09T18:43:39.460Z,1.50
2018-09-09T18:49:44.296Z,1.60
2018-09-09T18:55:49.350Z,1.70
2018-09-09T19:01:55.025Z,1.70
2018-09-09T19:07:59.813Z,2.00
2018-09-09T19:14:05.108Z,1.83
2018-09-09T19:20:11.667Z,1.70
2018-09-09T19:26:16.529Z,1.30
2018-09-09T19:32:21.432Z,1.90
2018-09-09T19:38:26.465Z,1.90
2018-09-09T19:44:31.305Z,1.70
2018-09-09T19:50:36.186Z,1.80
2018-09-09T19:56:40.935Z,1.47
2018-09-09T20:02:46.136Z,1.93
2018-09-09T20:08:50.911Z,1.63
2018-09-09T20:14:55.965Z,1.47
2018-09-09T20:21:01.044Z,1.97
2018-09-09T20:27:05.902Z,2.17
2018-09-09T20:33:11.859Z,1.93
2018-09-09T20:39:16.820Z,1.90
2018-09-09T20:45:21.576Z,1.90
2018-09-09T20:51:26.305Z,2.03
2018-09-09T20:57:31.010Z,2.57
2018-09-09T21:03:35.860Z,2.07
2018-09-09T21:09:41.329Z,2.23
2018-09-09T21:15:46.132Z,1.87
2018-09-09T21:21:50.898Z,1.80
2018-09-09T21:27:55.632Z,1.60
2018-09-09T21:34:00.370Z,2.00
2018-09-09T21:40:05.254Z,1.60
2018-09-09T21:46:10.303Z,1.43
2018-09-09T21:52:14.989Z,2.00
2018-09-09T21:58:19.798Z,1.70
2018-09-09T22:04:24.667Z,1.90
2018-09-09T22:10:29.778Z,1.80
2018-09-09T22:16:34.885Z,1.97
2018-09-09T22:22:39.997Z,1.47
2018-09-09T22:28:45.379Z,2.20
2018-09-09T22:34:50.120Z,2.10
2018-09-09T22:40:54.788Z,2.27
2018-09-09T22:46:59.639Z,2.10
2018-09-09T22:53:04.622Z,1.70
2018-09-09T22:59:09.422Z,1.87
2018-09-09T23:05:14.413Z,2.23
2018-09-09T23:11:19.348Z,1.97
2018-09-09T23:17:24.164Z,1.93
2018-09-09T23:23:28.878Z,2.50
2018-09-09T23:29:33.719Z,2.20
2018-09-09T23:35:38.556Z,2.27
2018-09-09T23:41:43.722Z,2.77
2018-09-09T23:47:48.525Z,2.20
2018-09-09T23:53:53.359Z,2.43
2018-09-09T23:59:58.253Z,2.07
